Observations for NEW YORK JF KENNEDY, NY (JFK)

KJFK 112251Z 20005KT 10SM FEW030 02/M02 A2998 RMK AO2 SLP151 T00171017  
KJFK 112151Z 19004KT 10SM FEW031 02/M02 A2998 RMK AO2 SLP152 T00221017  
KJFK 112051Z 19003KT 10SM FEW031 FEW250 03/M02 A2999 RMK AO2 SLP155 T00281017 56023 
KJFK 111951Z 22004KT 10SM FEW031 FEW250 04/M02 A3001 RMK AO2 SLP161 T00391022   
KJFK 111851Z 20006KT 10SM SCT036 SCT250 04/M02 A3004 RMK AO2 SLP171 T00441022   
KJFK 111751Z 23005KT 10SM SCT036 SCT045 SCT250 04/M03 A3006 RMK AO2 SLP179 T00441028 10044 21028 58035  
KJFK 111651Z VRB04KT 10SM SCT032 SCT250 03/M03 A3011 RMK AO2 SLP194 T00331028   
KJFK 111551Z 00000KT 10SM SCT032 SCT250 03/M04 A3015 RMK AO2 SLP210 T00331039   
KJFK 111451Z 12003KT 10SM FEW030 FEW250 02/M03 A3016 RMK AO2 SLP214 T00221028 55007 
KJFK 111351Z 01005KT 10SM FEW028 FEW250 01/M03 A3016 RMK AO2 SLP213 T00111028   
KJFK 111251Z 02006KT 10SM FEW025 FEW250 M02/M04 A3017 RMK AO2 SLP216 T10171044  
KJFK 111151Z 01005KT 10SM FEW250 M02/M06 A3018 RMK AO2 SLP221 T10221056 11011 21028 56002   
KJFK 111051Z 36006KT 10SM CLR M02/M06 A3019 RMK AO2 SLP222 T10221061
KJFK 110951Z 02004KT 10SM CLR M02/M06 A3018 RMK AO2 SLP221 T10221061
KJFK 110851Z 01005KT 10SM CLR M02/M07 A3019 RMK AO2 SLP223 T10221067 58002  
KJFK 110751Z 01006KT 10SM CLR M03/M07 A3021 RMK AO2 SLP228 T10281067
KJFK 110651Z 36005KT 10SM CLR M02/M06 A3021 RMK AO2 SLP229 T10221061
KJFK 110551Z 01005KT 10SM CLR M01/M07 A3020 RMK AO2 SLP224 T10111067 10017 21017 51006  
KJFK 110451Z 36007KT 10SM CLR M01/M07 A3019 RMK AO2 SLP224 T10111067 400441022  
KJFK 110351Z 01005KT 10SM CLR M01/M07 A3020 RMK AO2 SLP225 T10061067
KJFK 110251Z 01007KT 10SM CLR 00/M07 A3018 RMK AO2 SLP218 T00001067 50004   
KJFK 110151Z 36009KT 10SM FEW250 01/M07 A3018 RMK AO2 SLP219 T00111072  
KJFK 110051Z 01007KT 10SM FEW250 01/M07 A3018 RMK AO2 SLP218 T00061067  
KJFK 102351Z 03006KT 10SM FEW250 01/M07 A3016 RMK AO2 SLP214 T00111067 10044 20011 51012
KJFK 102251Z 36005KT 10SM FEW250 02/M07 A3015 RMK AO2 SLP211 T00221067